Portada
METAR-TAF:

METAR-TAF

Aeroports :

Alta Floresta, Mato Grosso, Brasil

latitud: 09-52S, longitud: 056-06W, altitud: 288 m

Observació

L'informe es va fer fa 5 hores i 41 minuts, a les 18:00 UTC
Vent 3 kt del Nord/Nord-Est
Temperatura 38°C
Humitat 21%
Pressió 1009 hPa
Visibilitat 10 km o més
Cel ennuvolat a una alçada de 4000 ft

METAR: SBAT 121800Z 02003KT 9999 BKN040 38/12 Q1009

Hora: 19:41 (23:41 UTC)

Pronòstic

L'informe es va fer fa 8 hores i 41 minuts, a les 15:00 UTC
Pronòstic vàlid del 12 a les 18 UTC al 13 a les 06 UTC
Vent 5 kt del Est
Visibilitat 10 km o més
sense núvols per sota de 1500 mi sense presència de cumulonimbus.
Evolucionant progressivament
l' 13 a les 01 UTC al 13 a les 03 UTC
Vent kt del Nord

TAF: SBAT 121500Z 1218/1306 10005KT CAVOK TX38/1218Z TN22/1305Z BECMG 1301/1303 00000KT RMK PDL

Observacions i pronòstics meteorològics de més de 4000 aeroports (METAR i TAF).

Les estacions disponibles són els punts grocs i vermells al mapa.

Posi el ratolí al punt desitjat per veure el nom de l'estació.

Feu clic per veure les observacions i els pronòstics meteorològics.

Per canviar el mapa: feu clic els botons verds amb una creu de color negre per apropar; al botó verd amb un guió per allunyar la imatge; o en les fletxes verdes per a mapes adjacents.


METAR-TAF: